• Join FlightAware (Why Join?)
  • Login
  • US Flag 
08:09AM EDT


 

Airport Tracker/Info


-or-


 

Live Flight TrackerFlight Track Log ✈ UAE757 ✈ 30-Sep-2013 ✈ OMDB / DXB - DAAG / ALG

Flight Track Log - Related Links

Times and Time Zones

All times are in EDT time to prevent confusion due to time zone crossing. See the UAE757 flight status page for this flight to view local times or setup timezone preferences in your user account.

Time Position Orientation Groundspeed Altitude Reporting Facility
EDT Latitude Longitude Course Direction KTS MPH feet Rate Location/Type
01:04AM 25.3436 55.1749 298° West  Level Estimated
01:05AM 25.3953 55.0649 297° West  Level Estimated
01:06AM 25.4468 54.9548 297° West  Level Estimated
01:07AM 25.4983 54.8447 297° West  Level Estimated
01:08AM 25.5497 54.7344 297° West  Level Estimated
01:10AM 25.2560 55.3650 297° West 155 178  Level FlightAware
01:10AM 25.2620 55.3540 301° West 173 199 400 2,100 Climbing FlightAware
01:10AM 25.2720 55.3380 305° West 169 194 1,300 1,380 Climbing FlightAware
01:11AM 25.2810 55.3210 300° West 185 213 1,700 960 Climbing FlightAware
01:11AM 25.2960 55.2930 301° West 213 245 2,200 1,260 Climbing FlightAware
01:11AM 25.3000 55.2840 296° West 222 255 2,300 780 Climbing FlightAware
01:12AM 25.3000 55.2760 270° West 232 267 2,400 1,020 Climbing FlightAware
01:12AM 25.2980 55.2410 266° West 260 299 2,900 1,440 Climbing FlightAware
01:12AM 25.2970 55.2230 266° West 266 306 3,400 2,220 Climbing FlightAware
01:13AM 25.2970 55.1960 270° West 270 311 4,100 2,340 Climbing FlightAware
01:13AM 25.2960 55.1670 268° West 268 308 5,000 2,040 Climbing FlightAware
01:13AM 25.2960 55.1330 270° West 285 328 5,700 1,320 Climbing FlightAware
01:14AM 25.2950 55.1030 268° West 307 353 6,000 720 Climbing FlightAware
01:14AM 25.2950 55.0710 270° West 329 379 6,200 1,260 Climbing FlightAware
01:14AM 25.2940 55.0340 268° West 341 392 6,900 1,800 Climbing FlightAware
01:15AM 25.2930 54.9990 268° West 348 400 7,500 1,680 Climbing FlightAware
01:15AM 25.2930 54.9710 270° West 356 410 7,900 1,380 Climbing FlightAware
01:15AM 25.2920 54.9370 268° West 371 427 8,300 1,560 Climbing FlightAware
01:16AM 25.2910 54.8960 268° West 378 435 9,000 1,920 Climbing FlightAware
01:16AM 25.2900 54.8660 268° West 381 438 9,500 1,860 Climbing FlightAware
01:16AM 25.2890 54.8020 269° West 392 451 10,500 1,860 Climbing FlightAware
01:17AM 25.2960 54.7160 275° West 403 464 11,900 2,580 Climbing FlightAware
01:18AM 25.3120 54.6500 285° West 383 441 13,900 2,640 Climbing FlightAware
01:18AM 25.3290 54.5830 286° West 385 443 15,000 1,680 Climbing FlightAware
01:19AM 25.3450 54.5150 285° West 392 451 15,900 1,620 Climbing FlightAware
01:19AM 25.3620 54.4470 285° West 395 455 16,900 1,500 Climbing FlightAware
01:20AM 25.3790 54.3770 285° West 403 464 17,700 1,500 Climbing FlightAware
01:21AM 25.3960 54.3070 285° West 409 471 18,700 1,620 Climbing FlightAware
01:21AM 25.4130 54.2390 285° West 411 473 19,600 1,500 Climbing FlightAware
01:22AM 25.4300 54.1680 285° West 412 474 20,500 1,260 Climbing FlightAware
01:22AM 25.4480 54.0930 285° West 423 487 21,100 1,080 Climbing FlightAware
01:23AM 25.4670 54.0150 285° West 431 496 21,800 1,260 Climbing FlightAware
01:23AM 25.4850 53.9410 285° West 431 496 22,600 1,260 Climbing FlightAware
01:24AM 25.5040 53.8620 285° West 435 501 23,400 1,020 Climbing FlightAware
01:25AM 25.5210 53.7930 285° West 440 506 23,800 840 Climbing FlightAware
01:25AM 25.5400 53.7110 284° West 447 514 24,400 960 Climbing FlightAware
01:26AM 25.5590 53.6320 285° West 451 519 25,000 960 Climbing FlightAware
01:26AM 25.5780 53.5520 285° West 456 525 25,600 960 Climbing FlightAware
01:27AM 25.5960 53.4780 285° West 459 528 26,100 900 Climbing FlightAware
01:28AM 25.6160 53.3950 285° West 462 532 26,700 960 Climbing FlightAware
01:28AM 25.6350 53.3130 284° West 463 533 27,300 900 Climbing FlightAware
01:29AM 25.6540 53.2310 284° West 467 537 27,800 780 Climbing FlightAware
01:29AM 25.6700 53.1660 285° West 470 541 28,200 660 Climbing FlightAware
01:30AM 25.6920 53.0720 285° West 474 545 28,600 600 Climbing FlightAware
01:31AM 25.7200 52.9870 290° West 479 551 29,000 600 Climbing FlightAware
01:31AM 25.7490 52.9220 296° West 483 556 29,300 600 Climbing FlightAware
01:32AM 25.7890 52.8380 298° West 486 559 29,700 780 Climbing FlightAware
01:32AM 25.8270 52.7580 298° West 486 559 30,300 780 Climbing FlightAware
01:33AM 25.8650 52.6760 297° West 487 560 30,700 660 Climbing FlightAware
01:33AM 25.8990 52.6050 298° West 488 562 31,100 780 Climbing FlightAware
01:34AM 25.9340 52.5260 296° West 488 562 31,600 780 Climbing FlightAware
01:35AM 25.9700 52.4430 296° West 491 565 32,100 900 Climbing FlightAware
01:35AM 26.0110 52.3500 296° West 487 560 32,800 1,080 Climbing FlightAware
01:36AM 26.0460 52.2690 296° West 485 558 33,500 1,020 Climbing FlightAware
01:36AM 26.0790 52.1960 297° West 483 556 34,000 960 Climbing FlightAware
01:37AM 26.1130 52.1210 297° West 481 554 34,600 1,080 Climbing FlightAware
01:38AM 26.1500 52.0390 297° West 479 551 35,300 1,080 Climbing FlightAware
01:38AM 26.1830 51.9650 296° West 477 549 35,900 900 Climbing FlightAware
01:39AM 26.2200 51.8820 296° West 477 549 36,400 900 Climbing FlightAware
01:39AM 26.2520 51.8080 296° West 475 547 37,000 840 Climbing FlightAware
01:40AM 26.2850 51.7350 297° West 474 545 37,400 720 Climbing FlightAware
01:40AM 26.3160 51.6650 296° West 474 545 37,800 480 Climbing FlightAware
01:41AM 26.3560 51.5750 296° West 476 548 38,000 120 Climbing FlightAware
01:42AM 26.3850 51.5050 295° West 472 543 38,000  Level FlightAware
01:42AM 26.4090 51.4290 289° West 471 542 38,000  Level FlightAware
01:43AM 26.4390 51.3360 290° West 468 539 38,000  Level FlightAware
01:43AM 26.4610 51.2660 289° West 467 537 38,000  Level FlightAware
01:44AM 26.4860 51.1880 290° West 467 537 38,000  Level FlightAware
01:45AM 26.5140 51.0990 289° West 466 536 38,000  Level FlightAware
01:45AM 26.5480 50.9920 290° West 467 537 38,000  Level FlightAware
01:46AM 26.5740 50.9100 290° West 467 537 38,000  Level FlightAware
01:47AM 26.5990 50.8320 290° West 468 539 38,000  Level FlightAware
01:47AM 26.6240 50.7510 289° West 468 539 38,000  Level FlightAware
01:48AM 26.6500 50.6690 290° West 470 541 38,000  Level FlightAware
01:48AM 26.6700 50.5980 288° West 471 542 38,000  Level FlightAware
01:49AM 26.6940 50.5120 287° West 471 542 38,000  Level FlightAware
01:50AM 26.7140 50.4400 287° West 471 542 38,000  Level FlightAware
01:51AM 26.7510 50.2760 284° West 467 537 38,000  Level FlightAware
01:51AM 26.7550 50.2000 273° West 466 536 38,000  Level FlightAware
01:52AM 26.7520 50.0730 269° West 464 534 38,000  Level FlightAware
01:53AM 26.7490 49.9970 267° West 464 534 38,000  Level FlightAware
01:53AM 26.7470 49.9240 268° West 464 534 38,000  Level FlightAware
01:54AM 26.7430 49.8010 268° West 462 532 38,000  Level FlightAware
01:55AM 26.7410 49.7090 269° West 462 532 38,000  Level FlightAware
01:55AM 26.7380 49.6190 268° West 462 532 38,000  Level FlightAware
01:56AM 26.7350 49.5360 268° West 462 532 38,000  Level FlightAware
01:56AM 26.7320 49.4520 268° West 462 532 38,000  Level FlightAware
01:57AM 26.7280 49.3230 268° West 461 531 38,000  Level FlightAware
01:58AM 26.7250 49.2390 268° West 460 529 38,000  Level FlightAware
01:58AM 26.7220 49.1570 268° West 460 529 38,000  Level FlightAware
01:59AM 26.7190 49.0620 268° West 460 529 38,000  Level FlightAware
02:00AM 26.7160 48.9780 268° West 459 528 38,000  Level FlightAware
02:00AM 26.7130 48.9000 268° West 460 529 38,000  Level FlightAware
02:01AM 26.7100 48.8120 268° West 460 529 38,000  Level FlightAware
02:01AM 26.7060 48.7300 267° West 460 529 38,000  Level FlightAware
02:02AM 26.7030 48.6460 268° West 461 531 38,000  Level FlightAware
02:03AM 26.7000 48.5630 268° West 461 531 38,000  Level FlightAware
02:03AM 26.6960 48.4790 267° West 460 529 38,000  Level FlightAware
02:04AM 26.6930 48.3970 268° West 460 529 38,000  Level FlightAware
02:04AM 26.6890 48.3130 267° West 458 527 38,000  Level FlightAware
02:05AM 26.6860 48.2310 268° West 457 526 38,000  Level FlightAware
02:05AM 26.6820 48.1480 267° West 457 526 38,000  Level FlightAware
02:06AM 26.6790 48.0660 268° West 457 526 38,000  Level FlightAware
02:07AM 26.6770 47.9850 268° West 457 526 38,000  Level FlightAware
02:07AM 26.6840 47.9010 275° West 459 528 38,000  Level FlightAware
02:08AM 26.6960 47.8230 280° West 460 529 38,000  Level FlightAware
02:08AM 26.7100 47.7380 280° West 459 528 38,000  Level FlightAware
02:09AM 26.7220 47.6590 280° West 460 529 38,000  Level FlightAware
02:10AM 26.7360 47.5740 280° West 459 528 38,000  Level FlightAware
02:10AM 26.7480 47.4940 280° West 459 528 38,000  Level FlightAware
02:11AM 26.7630 47.4000 280° West 457 526 38,000  Level FlightAware
02:11AM 26.7760 47.3180 280° West 456 525 38,000  Level FlightAware
02:12AM 26.7880 47.2380 280° West 456 525 38,000  Level FlightAware
02:13AM 26.8010 47.1550 280° West 456 525 38,000  Level FlightAware
02:13AM 26.8150 47.0620 280° West 456 525 38,000  Level FlightAware
02:14AM 26.8280 46.9800 280° West 457 526 38,000  Level FlightAware
02:14AM 26.8390 46.9100 280° West 457 526 38,000  Level FlightAware
02:15AM 26.8510 46.8300 280° West 458 527 38,000  Level FlightAware
02:16AM 26.8650 46.7350 279° West 458 527 38,000  Level FlightAware
02:16AM 26.8780 46.6530 280° West 458 527 38,000  Level FlightAware
02:17AM 26.8880 46.5830 279° West 457 526 38,000  Level FlightAware
02:17AM 26.9000 46.5010 279° West 457 526 38,000  Level FlightAware
02:18AM 26.9140 46.4070 280° West 455 524 38,000  Level FlightAware
02:19AM 26.9280 46.3150 280° West 456 525 38,000  Level FlightAware
02:19AM 26.9400 46.2360 280° West 457 526 38,000  Level FlightAware
02:20AM 26.9520 46.1500 279° West 458 527 38,000  Level FlightAware
02:20AM 26.9640 46.0670 279° West 459 528 38,000  Level FlightAware
02:21AM 26.9780 45.9860 281° West 462 532 38,000  Level FlightAware
02:21AM 27.0040 45.9140 292° West 459 528 38,000  Level FlightAware
02:22AM 27.0360 45.8310 293° West 461 531 38,000  Level FlightAware
02:23AM 27.0620 45.7620 293° West 461 531 38,000  Level FlightAware
02:23AM 27.1020 45.6570 293° West 460 529 38,000  Level FlightAware
02:24AM 27.1330 45.5750 293° West 460 529 38,000  Level FlightAware
02:25AM 27.1590 45.5060 293° West 460 529 38,000  Level FlightAware
02:25AM 27.1850 45.4390 294° West 460 529 38,000  Level FlightAware
02:26AM 27.2090 45.3750 293° West 460 529 38,000  Level FlightAware
02:27AM 27.2590 45.2380 292° West 461 531 38,000  Level FlightAware
02:27AM 27.2980 45.1330 293° West 461 531 38,000  Level FlightAware
02:28AM 27.3230 45.0630 292° West 461 531 38,000  Level FlightAware
02:29AM 27.3480 44.9930 292° West 461 531 38,000  Level FlightAware
02:29AM 27.3730 44.9240 292° West 461 531 38,000  Level FlightAware
02:30AM 27.3970 44.8560 292° West 461 531 38,000  Level FlightAware
02:30AM 27.4220 44.7880 293° West 461 531 38,000  Level FlightAware
02:31AM 27.4460 44.7200 292° West 461 531 38,000  Level FlightAware
02:32AM 27.4710 44.6520 293° West 461 531 38,000  Level FlightAware
02:32AM 27.4960 44.5820 292° West 461 531 38,000  Level FlightAware
02:33AM 27.5200 44.5130 291° West 461 531 38,000  Level FlightAware
02:33AM 27.5450 44.4450 293° West 461 531 38,000  Level FlightAware
02:34AM 27.5690 44.3770 292° West 461 531 38,000  Level FlightAware
02:35AM 27.5930 44.3090 292° West 461 531 38,000  Level FlightAware
02:35AM 27.6180 44.2400 292° West 461 531 38,000  Level FlightAware
02:36AM 27.6420 44.1720 292° West 461 531 38,000  Level FlightAware
02:36AM 27.6670 44.1040 293° West 461 531 38,000  Level FlightAware
02:39AM 27.7590 43.8832 295° West  Level Estimated
02:40AM 27.8042 43.7745 295° West  Level Estimated
02:41AM 27.8492 43.6656 295° West  Level Estimated
02:42AM 27.8942 43.5567 295° West  Level Estimated
02:43AM 27.9391 43.4477 295° West  Level Estimated
02:44AM 27.9838 43.3386 295° West  Level Estimated
02:45AM 28.0285 43.2295 295° West  Level Estimated
02:46AM 28.0732 43.1202 295° West  Level Estimated
02:47AM 28.1177 43.0108 295° West  Level Estimated
02:48AM 28.1621 42.9014 295° West  Level Estimated
02:49AM 28.2065 42.7918 295° West  Level Estimated
02:50AM 28.2508 42.6822 295° West  Level Estimated
02:51AM 28.2950 42.5725 295° West  Level Estimated
02:52AM 28.3391 42.4626 295° West  Level Estimated
02:53AM 28.3831 42.3527 294° West  Level Estimated
02:54AM 28.4270 42.2427 294° West  Level Estimated
02:55AM 28.4708 42.1326 294° West  Level Estimated
02:56AM 28.5146 42.0225 294° West  Level Estimated
02:57AM 28.5582 41.9122 294° West  Level Estimated
02:58AM 28.6018 41.8018 294° West  Level Estimated
02:59AM 28.6452 41.6914 294° West  Level Estimated
03:00AM 28.6886 41.5808 294° West  Level Estimated
03:01AM 28.7319 41.4702 294° West  Level Estimated
03:02AM 28.7751 41.3594 294° West  Level Estimated
03:03AM 28.8183 41.2486 294° West  Level Estimated
03:04AM 28.8613 41.1377 294° West  Level Estimated
03:05AM 28.9042 41.0267 294° West  Level Estimated
03:06AM 28.9470 40.9156 294° West  Level Estimated
03:07AM 28.9898 40.8044 294° West  Level Estimated
03:08AM 29.0324 40.6931 294° West  Level Estimated
03:09AM 29.0750 40.5817 294° West  Level Estimated
03:10AM 29.1175 40.4703 294° West  Level Estimated
03:11AM 29.1599 40.3587 294° West  Level Estimated
03:12AM 29.2022 40.2471 293° West  Level Estimated
03:13AM 29.2444 40.1353 293° West  Level Estimated
03:14AM 29.2865 40.0235 293° West  Level Estimated
03:15AM 29.3285 39.9116 293° West  Level Estimated
03:16AM 29.3704 39.7995 293° West  Level Estimated
03:17AM 29.4122 39.6874 293° West  Level Estimated
03:18AM 29.4540 39.5752 293° West  Level Estimated
03:19AM 29.4956 39.4629 293° West  Level Estimated
03:20AM 29.5371 39.3506 293° West  Level Estimated
03:21AM 29.5786 39.2381 293° West  Level Estimated
03:22AM 29.6199 39.1255 293° West  Level Estimated
03:23AM 29.6612 39.0128 293° West  Level Estimated
03:24AM 29.7024 38.9001 293° West  Level Estimated
03:25AM 29.7434 38.7872 293° West  Level Estimated
03:26AM 29.7844 38.6743 293° West  Level Estimated
03:27AM 29.8253 38.5613 293° West  Level Estimated
03:28AM 29.8661 38.4481 293° West  Level Estimated
03:29AM 29.9067 38.3349 293° West  Level Estimated
03:30AM 29.9473 38.2216 292° West  Level Estimated
03:31AM 29.9878 38.1082 292° West  Level Estimated
03:32AM 30.0282 37.9947 292° West  Level Estimated
03:33AM 30.0685 37.8811 292° West  Level Estimated
03:33AM 29.0740 36.2280 292° West 438 504 38,000  Level FlightAware
03:34AM 29.0730 36.1570 269° West 438 504 38,000  Level FlightAware
03:34AM 29.0710 36.0830 268° West 438 504 38,000  Level FlightAware
03:35AM 29.0680 36.0120 267° West 438 504 38,000  Level FlightAware
03:36AM 29.0660 35.9410 268° West 438 504 38,000  Level FlightAware
03:36AM 29.0640 35.8700 268° West 438 504 38,000  Level FlightAware
03:37AM 29.0620 35.8210 267° West 438 504 38,000  Level FlightAware
03:37AM 29.0600 35.7500 268° West 438 504 38,000  Level FlightAware
03:38AM 29.0580 35.6790 268° West 438 504 38,000  Level FlightAware
03:38AM 29.0560 35.6080 268° West 438 504 38,000  Level FlightAware
03:39AM 29.0540 35.5370 268° West 438 504 38,000  Level FlightAware
03:40AM 29.0520 35.4640 268° West 438 504 38,000  Level FlightAware
03:40AM 29.0490 35.3930 267° West 438 504 38,000  Level FlightAware
03:41AM 29.0470 35.3200 268° West 438 504 38,000  Level FlightAware
03:41AM 29.0450 35.2500 268° West 438 504 38,000  Level FlightAware
03:42AM 29.0430 35.1830 268° West 438 504 38,000  Level FlightAware
03:43AM 29.0410 35.1100 268° West 438 504 38,000  Level FlightAware
03:43AM 29.0380 35.0370 267° West 438 504 38,000  Level FlightAware
03:46AM 29.1350 34.7914 294° West  Level Estimated
03:47AM 29.1787 34.6805 294° West  Level Estimated
03:48AM 29.2222 34.5694 294° West  Level Estimated
03:49AM 29.2656 34.4583 294° West  Level Estimated
03:50AM 29.3090 34.3470 294° West  Level Estimated
03:51AM 29.3522 34.2357 294° West  Level Estimated
03:52AM 29.3954 34.1243 294° West  Level Estimated
03:53AM 29.4385 34.0128 294° West  Level Estimated
03:54AM 29.4815 33.9012 294° West  Level Estimated
03:55AM 29.5243 33.7895 294° West  Level Estimated
03:56AM 29.5671 33.6777 294° West  Level Estimated
03:57AM 29.6098 33.5658 294° West  Level Estimated
03:58AM 29.6525 33.4538 294° West  Level Estimated
03:59AM 29.6950 33.3417 294° West  Level Estimated
04:00AM 29.7374 33.2295 294° West  Level Estimated
04:01AM 29.7797 33.1172 293° West  Level Estimated
04:02AM 29.8219 33.0049 293° West  Level Estimated
04:03AM 29.8641 32.8924 293° West  Level Estimated
04:04AM 29.9061 32.7799 293° West  Level Estimated
04:05AM 29.9480 32.6672 293° West  Level Estimated
04:06AM 29.9899 32.5545 293° West  Level Estimated
04:07AM 30.0316 32.4416 293° West  Level Estimated
04:08AM 30.0733 32.3287 293° West  Level Estimated
04:09AM 30.1148 32.2156 293° West  Level Estimated
04:10AM 30.1563 32.1025 293° West  Level Estimated
04:11AM 30.1977 31.9893 293° West  Level Estimated
04:12AM 30.2389 31.8760 293° West  Level Estimated
04:13AM 30.2801 31.7626 293° West  Level Estimated
04:14AM 30.3212 31.6491 293° West  Level Estimated
04:15AM 30.3622 31.5355 293° West  Level Estimated
04:16AM 30.4030 31.4218 293° West  Level Estimated
04:17AM 30.4438 31.3080 293° West  Level Estimated
04:18AM 30.4845 31.1941 293° West  Level Estimated
04:19AM 30.5250 31.0801 292° West  Level Estimated
04:20AM 30.5655 30.9660 292° West  Level Estimated
04:21AM 30.6059 30.8519 292° West  Level Estimated
04:22AM 30.6462 30.7376 292° West  Level Estimated
04:23AM 30.6864 30.6232 292° West  Level Estimated
04:24AM 30.7264 30.5088 292° West  Level Estimated
04:24AM 31.3120 29.9030 292° West 428 493 40,000  Level FlightAware
04:25AM 31.3580 29.8280 306° West 428 493 40,000  Level FlightAware
04:25AM 31.4140 29.7340 305° West 428 493 40,000  Level FlightAware
04:26AM 31.4570 29.6620 305° West 428 493 40,000  Level FlightAware
04:27AM 31.5000 29.5900 305° West 428 493 40,000  Level FlightAware
04:27AM 31.5360 29.5280 304° West 428 493 40,000  Level FlightAware
04:28AM 31.5800 29.4560 306° West 429 494 40,000  Level FlightAware
04:28AM 31.6110 29.4030 304° West 429 494 40,000  Level FlightAware
04:29AM 31.6480 29.3390 304° West 429 494 40,000  Level FlightAware
04:30AM 31.6820 29.2800 304° West 429 494 40,000  Level FlightAware
04:30AM 31.7160 29.2210 304° West 429 494 40,000  Level FlightAware
04:31AM 31.7510 29.1600 304° West 429 494 40,000  Level FlightAware
04:31AM 31.7850 29.1010 304° West 429 494 40,000  Level FlightAware
04:32AM 31.8190 29.0410 304° West 429 494 40,000  Level FlightAware
04:33AM 31.8530 28.9820 304° West 429 494 40,000  Level FlightAware
04:33AM 31.8880 28.9210 304° West 429 494 40,000  Level FlightAware
04:34AM 31.9220 28.8620 304° West 429 494 40,000  Level FlightAware
04:34AM 31.9550 28.8040 304° West 429 494 40,000  Level FlightAware
04:35AM 31.9890 28.7450 304° West 429 494 40,000  Level FlightAware
04:36AM 32.0220 28.6850 303° West 429 494 40,000  Level FlightAware
04:36AM 32.0560 28.6260 304° West 429 494 40,000  Level FlightAware
04:37AM 32.0900 28.5670 304° West 429 494 40,000  Level FlightAware
04:37AM 32.1240 28.5070 304° West 429 494 40,000  Level FlightAware
04:38AM 32.2610 28.2930 307° West 425 489 40,000  Level FlightAware
04:39AM 32.3090 28.2090 304° West 419 482 40,000  Level FlightAware
04:39AM 32.3540 28.1310 304° West 733 844 40,000  Level FlightAware
04:40AM 32.3920 28.0640 304° West 419 482 40,000  Level FlightAware
04:41AM 32.4250 28.0040 303° West 419 482 40,000  Level FlightAware
04:41AM 32.4570 27.9450 303° West 419 482 40,000  Level FlightAware
04:42AM 32.4890 27.8860 303° West 419 482 40,000  Level FlightAware
04:42AM 32.5220 27.8270 304° West 419 482 40,000  Level FlightAware
04:43AM 32.5550 27.7660 303° West 419 482 40,000  Level FlightAware
04:44AM 32.5870 27.7070 303° West 419 482 40,000  Level FlightAware
04:44AM 32.6190 27.6480 303° West 419 482 40,000  Level FlightAware
04:45AM 32.6520 27.5890 304° West 419 482 40,000  Level FlightAware
04:45AM 32.6850 27.5280 303° West 419 482 40,000  Level FlightAware
04:46AM 32.7160 27.4730 304° West 419 482 40,000  Level FlightAware
04:47AM 32.7490 27.4120 303° West 419 482 40,000  Level FlightAware
04:47AM 32.7810 27.3530 303° West 419 482 40,000  Level FlightAware
04:48AM 32.8130 27.2930 302° West 419 482 40,000  Level FlightAware
04:48AM 32.8460 27.2340 304° West 419 482 40,000  Level FlightAware
04:49AM 32.8780 27.1750 303° West 419 482 40,000  Level FlightAware
04:52AM 32.9574 26.8774 288° West  Level Estimated
04:53AM 32.9894 26.7567 288° West  Level Estimated
04:54AM 33.0213 26.6358 287° West  Level Estimated
04:55AM 33.0530 26.5148 287° West  Level Estimated
04:56AM 33.0846 26.3938 287° West  Level Estimated
04:57AM 33.1162 26.2726 287° West  Level Estimated
04:58AM 33.1476 26.1514 287° West  Level Estimated
04:59AM 33.1789 26.0301 287° West  Level Estimated
05:00AM 33.2100 25.9087 287° West  Level Estimated
05:01AM 33.2411 25.7872 287° West  Level Estimated
05:02AM 33.2720 25.6657 287° West  Level Estimated
05:03AM 33.3028 25.5440 287° West  Level Estimated
05:04AM 33.3335 25.4223 287° West  Level Estimated
05:05AM 33.3641 25.3005 287° West  Level Estimated
05:05AM 34.0000 25.1420 287° West 419 482 40,000  Level FlightAware
05:05AM 34.0290 25.0520 291° West 417 480 40,000  Level FlightAware
05:06AM 34.0540 24.9700 290° West 420 483 40,000  Level FlightAware
05:07AM 34.0760 24.8980 290° West 420 483 40,000  Level FlightAware
05:07AM 34.0980 24.8230 290° West 419 482 40,000  Level FlightAware
05:08AM 34.1200 24.7490 290° West 422 486 40,000  Level FlightAware
05:08AM 34.1480 24.6570 290° West 420 483 40,000  Level FlightAware
05:09AM 34.1680 24.5880 289° West 420 483 40,000  Level FlightAware
05:09AM 34.1910 24.5120 290° West 421 484 40,000  Level FlightAware
05:10AM 34.2140 24.4330 289° West 421 484 40,000  Level FlightAware
05:11AM 34.2400 24.3440 289° West 420 483 40,000  Level FlightAware
05:11AM 34.2600 24.2770 290° West 419 482 40,000  Level FlightAware
05:12AM 34.2820 24.2000 289° West 419 482 40,000  Level FlightAware
05:12AM 34.3050 24.1210 289° West 421 484 40,000  Level FlightAware
05:13AM 34.3270 24.0450 289° West 422 486 40,000  Level FlightAware
05:14AM 34.3510 23.9650 290° West 423 487 40,000  Level FlightAware
05:14AM 34.3730 23.8870 289° West 423 487 40,000  Level FlightAware
05:15AM 34.3990 23.7970 289° West 422 486 40,000  Level FlightAware
05:15AM 34.4180 23.7300 289° West 421 484 40,000  Level FlightAware
05:16AM 34.4420 23.6500 290° West 420 483 40,000  Level FlightAware
05:16AM 34.4640 23.5720 289° West 420 483 40,000  Level FlightAware
05:17AM 34.4870 23.4920 289° West 421 484 40,000  Level FlightAware
05:18AM 34.5120 23.4040 289° West 422 486 40,000  Level FlightAware
05:18AM 34.5340 23.3240 288° West 423 487 40,000  Level FlightAware
05:19AM 34.5590 23.2350 289° West 423 487 40,000  Level FlightAware
05:19AM 34.5790 23.1670 290° West 422 486 40,000  Level FlightAware
05:20AM 34.6010 23.0890 289° West 422 486 40,000  Level FlightAware
05:21AM 34.6250 22.9970 288° West 420 483 40,000  Level FlightAware
05:21AM 34.6390 22.9300 284° West 424 488 40,000  Level FlightAware
05:22AM 34.6610 22.8360 286° West 422 486 40,000  Level FlightAware
05:22AM 34.6760 22.7680 285° West 418 481 40,000  Level FlightAware
05:23AM 34.6940 22.6880 285° West 417 480 40,000  Level FlightAware
05:24AM 34.7140 22.5970 285° West 417 480 40,000  Level FlightAware
05:24AM 34.7320 22.5190 286° West 417 480 40,000  Level FlightAware
05:25AM 34.7470 22.4490 285° West 417 480 40,000  Level FlightAware
05:25AM 34.7650 22.3700 286° West 418 481 40,000  Level FlightAware
05:26AM 34.7850 22.2770 285° West 420 483 40,000  Level FlightAware
05:26AM 34.8000 22.2080 285° West 423 487 40,000  Level FlightAware
05:27AM 34.8180 22.1280 285° West 425 489 40,000  Level FlightAware
05:28AM 34.8350 22.0480 285° West 424 488 40,000  Level FlightAware
05:28AM 34.8550 21.9560 285° West 424 488 40,000  Level FlightAware
05:29AM 34.8700 21.8870 285° West 424 488 40,000  Level FlightAware
05:29AM 34.8880 21.8060 285° West 422 486 40,000  Level FlightAware
05:30AM 34.9070 21.7140 284° West 424 488 40,000  Level FlightAware
05:31AM 34.9220 21.6450 285° West 425 489 40,000  Level FlightAware
05:31AM 34.9400 21.5620 285° West 425 489 40,000  Level FlightAware
05:32AM 34.9600 21.4690 285° West 423 487 40,000  Level FlightAware
05:32AM 34.9740 21.4000 284° West 423 487 40,000  Level FlightAware
05:33AM 34.9910 21.3190 284° West 422 486 40,000  Level FlightAware
05:34AM 35.0110 21.2260 285° West 421 484 40,000  Level FlightAware
05:34AM 35.0280 21.1460 285° West 421 484 40,000  Level FlightAware
05:35AM 35.0420 21.0770 284° West 423 487 40,000  Level FlightAware
05:35AM 35.0650 20.9620 284° West 423 487 40,000  Level FlightAware
05:36AM 35.0870 20.8550 284° West 422 486 40,000  Level FlightAware
05:37AM 35.1010 20.7820 283° West 422 486 40,000  Level FlightAware
05:38AM 35.1300 20.6500 285° West 422 486 40,000  Level FlightAware
05:38AM 35.1450 20.5770 284° West 422 486 40,000  Level FlightAware
05:39AM 35.1590 20.5060 284° West 422 486 40,000  Level FlightAware
05:40AM 35.1740 20.4350 285° West 422 486 40,000  Level FlightAware
05:40AM 35.2000 20.3060 284° West 428 493 40,000  Level FlightAware
05:41AM 35.2120 20.2410 283° West 428 493 40,000  Level FlightAware
05:41AM 35.2260 20.1690 283° West 428 493 40,000  Level FlightAware
05:42AM 35.2400 20.0960 283° West 428 493 40,000  Level FlightAware
05:42AM 35.2530 20.0240 282° West 428 493 40,000  Level FlightAware
05:43AM 35.2670 19.9500 283° West 428 493 40,000  Level FlightAware
05:44AM 35.2810 19.8770 283° West 428 493 40,000  Level FlightAware
05:44AM 35.2940 19.8090 283° West 428 493 40,000  Level FlightAware
05:45AM 35.3070 19.7370 282° West 428 493 40,000  Level FlightAware
05:45AM 35.3210 19.6640 283° West 428 493 40,000  Level FlightAware
05:46AM 35.3350 19.5920 283° West 428 493 40,000  Level FlightAware
05:47AM 35.3480 19.5200 283° West 428 493 40,000  Level FlightAware
05:47AM 35.3620 19.4470 283° West 428 493 40,000  Level FlightAware
05:48AM 35.3750 19.3750 283° West 428 493 40,000  Level FlightAware
05:48AM 35.3890 19.3020 283° West 428 493 40,000  Level FlightAware
05:49AM 35.4440 19.0590 286° West 422 486 40,000  Level FlightAware
05:50AM 35.4600 18.9720 283° West 423 487 40,000  Level FlightAware
05:50AM 35.4740 18.9010 284° West 423 487 40,000  Level FlightAware
05:51AM 35.4870 18.8290 283° West 423 487 40,000  Level FlightAware
05:52AM 35.5010 18.7570 283° West 423 487 40,000  Level FlightAware
05:52AM 35.5140 18.6860 283° West 423 487 40,000  Level FlightAware
05:53AM 35.5280 18.6120 283° West 423 487 40,000  Level FlightAware
05:53AM 35.5410 18.5400 283° West 423 487 40,000  Level FlightAware
05:54AM 35.5720 18.3690 283° West 429 494 40,000  Level FlightAware
05:54AM 35.5860 18.2940 283° West 431 496 40,000  Level FlightAware
05:55AM 35.6060 18.1870 283° West 432 497 40,000  Level FlightAware
05:56AM 35.6190 18.1120 282° West 432 497 40,000  Level FlightAware
05:56AM 35.6320 18.0380 282° West 432 497 40,000  Level FlightAware
05:57AM 35.6520 17.9300 283° West 431 496 40,000  Level FlightAware
05:58AM 35.6660 17.8540 283° West 429 494 40,000  Level FlightAware
05:58AM 35.6810 17.7690 282° West 428 493 40,000  Level FlightAware
05:59AM 35.6960 17.6870 283° West 428 493 40,000  Level FlightAware
05:59AM 35.7100 17.6050 282° West 427 491 40,000  Level FlightAware
06:00AM 35.7250 17.5200 282° West 425 489 40,000  Level FlightAware
06:00AM 35.7400 17.4360 282° West 424 488 40,000  Level FlightAware
06:01AM 35.7530 17.3570 281° West 423 487 40,000  Level FlightAware
06:02AM 35.7690 17.2700 283° West 423 487 40,000  Level FlightAware
06:02AM 35.7830 17.1860 282° West 423 487 40,000  Level FlightAware
06:03AM 35.7960 17.1100 282° West 422 486 40,000  Level FlightAware
06:03AM 35.8110 17.0220 282° West 420 483 40,000  Level FlightAware
06:04AM 35.8240 16.9480 282° West 419 482 40,000  Level FlightAware
06:05AM 35.8380 16.8620 281° West 419 482 40,000  Level FlightAware
06:05AM 35.8530 16.7780 282° West 418 481 40,000  Level FlightAware
06:06AM 35.8650 16.7040 281° West 418 481 40,000  Level FlightAware
06:06AM 35.8800 16.6140 282° West 418 481 40,000  Level FlightAware
06:07AM 35.8920 16.5420 282° West 418 481 40,000  Level FlightAware
06:07AM 35.9070 16.4570 282° West 418 481 40,000  Level FlightAware
06:08AM 35.9200 16.3760 281° West 418 481 40,000  Level FlightAware
06:09AM 35.9340 16.2940 282° West 416 479 40,000  Level FlightAware
06:09AM 35.9470 16.2100 281° West 414 476 40,000  Level FlightAware
06:10AM 35.9610 16.1280 282° West 412 474 40,000  Level FlightAware
06:10AM 35.9740 16.0460 281° West 410 472 40,000  Level FlightAware
06:11AM 35.9860 15.9720 281° West 410 472 40,000  Level FlightAware
06:12AM 36.0020 15.8760 282° West 408 470 40,000  Level FlightAware
06:12AM 36.0150 15.7950 281° West 406 467 40,000  Level FlightAware
06:13AM 36.0270 15.7140 280° West 405 466 40,000  Level FlightAware
06:13AM 36.0410 15.6290 282° West 405 466 40,000  Level FlightAware
06:14AM 36.0530 15.5530 281° West 403 464 40,000  Level FlightAware
06:15AM 36.0660 15.4710 281° West 402 463 40,000  Level FlightAware
06:15AM 36.0780 15.3910 281° West 401 461 40,000  Level FlightAware
06:16AM 36.0900 15.3190 282° West 400 460 40,000  Level FlightAware
06:16AM 36.1020 15.2380 280° West 401 461 40,000  Level FlightAware
06:17AM 36.1150 15.1590 282° West 401 461 40,000  Level FlightAware
06:17AM 36.1260 15.0850 280° West 401 461 40,000  Level FlightAware
06:18AM 36.1380 15.0060 281° West 399 459 40,000  Level FlightAware
06:19AM 36.1500 14.9280 281° West 399 459 40,000  Level FlightAware
06:19AM 36.1620 14.8490 281° West 399 459 40,000  Level FlightAware
06:20AM 36.1740 14.7670 280° West 399 459 40,000  Level FlightAware
06:20AM 36.1860 14.6880 281° West 398 458 40,000  Level FlightAware
06:21AM 36.1990 14.6070 281° West 397 457 40,000  Level FlightAware
06:22AM 36.2090 14.5350 280° West 397 457 40,000  Level FlightAware
06:22AM 36.2210 14.4530 280° West 398 458 40,000  Level FlightAware
06:23AM 36.2330 14.3730 281° West 399 459 40,000  Level FlightAware
06:23AM 36.2440 14.3000 281° West 400 460 40,000  Level FlightAware
06:24AM 36.2560 14.2190 280° West 402 463 40,000  Level FlightAware
06:25AM 36.2680 14.1370 280° West 403 464 40,000  Level FlightAware
06:25AM 36.2780 14.0640 280° West 403 464 40,000  Level FlightAware
06:26AM 36.2900 13.9830 280° West 403 464 40,000  Level FlightAware
06:26AM 36.3010 13.9060 280° West 400 460 40,000  Level FlightAware
06:27AM 36.3130 13.8250 280° West 398 458 40,000  Level FlightAware
06:27AM 36.3250 13.7390 280° West 397 457 40,000  Level FlightAware
06:28AM 36.3350 13.6690 280° West 396 456 40,000  Level FlightAware
06:29AM 36.3460 13.5870 279° West 396 456 40,000  Level FlightAware
06:29AM 36.3570 13.5080 280° West 397 457 40,000  Level FlightAware
06:30AM 36.3680 13.4350 281° West 398 458 40,000  Level FlightAware
06:30AM 36.3790 13.3550 280° West 400 460 40,000  Level FlightAware
06:31AM 36.3910 13.2680 280° West 402 463 40,000  Level FlightAware
06:31AM 36.4010 13.1950 280° West 403 464 40,000  Level FlightAware
06:32AM 36.4120 13.1130 279° West 403 464 40,000  Level FlightAware
06:33AM 36.4230 13.0300 279° West 402 463 40,000  Level FlightAware
06:33AM 36.4330 12.9590 280° West 402 463 40,000  Level FlightAware
06:34AM 36.4440 12.8760 279° West 402 463 40,000  Level FlightAware
06:34AM 36.4550 12.7910 279° West 403 464 40,000  Level FlightAware
06:35AM 36.4650 12.7180 280° West 404 465 40,000  Level FlightAware
06:36AM 36.4760 12.6390 280° West 403 464 40,000  Level FlightAware
06:36AM 36.4870 12.5540 279° West 402 463 40,000  Level FlightAware
06:37AM 36.4970 12.4730 279° West 401 461 40,000  Level FlightAware
06:37AM 36.5070 12.3980 279° West 402 463 40,000  Level FlightAware
06:38AM 36.5170 12.3200 279° West 402 463 40,000  Level FlightAware
06:39AM 36.5280 12.2340 279° West 402 463 40,000  Level FlightAware
06:39AM 36.5390 12.1530 280° West 403 464 40,000  Level FlightAware
06:40AM 36.5500 12.0630 279° West 401 461 40,000  Level FlightAware
06:40AM 36.5600 11.9850 279° West 400 460 40,000  Level FlightAware
06:41AM 36.5710 11.8990 279° West 401 461 40,000  Level FlightAware
06:42AM 36.5800 11.8260 279° West 401 461 40,000  Level FlightAware
06:42AM 36.5910 11.7410 279° West 402 463 40,000  Level FlightAware
06:43AM 36.6000 11.6670 279° West 402 463 40,000  Level FlightAware
06:43AM 36.6100 11.5860 279° West 402 463 40,000  Level FlightAware
06:44AM 36.6180 11.5080 277° West 403 464 40,000  Level FlightAware
06:44AM 36.6250 11.4280 276° West 405 466 40,000  Level FlightAware
06:45AM 36.6320 11.3420 276° West 406 467 40,000  Level FlightAware
06:46AM 36.6390 11.2570 276° West 407 468 40,000  Level FlightAware
06:46AM 36.6450 11.1820 276° West 408 470 40,000  Level FlightAware
06:47AM 36.6520 11.0990 276° West 408 470 40,000  Level FlightAware
06:47AM 36.6600 11.0150 277° West 407 468 40,000  Level FlightAware
06:48AM 36.6660 10.9360 275° West 409 471 40,000  Level FlightAware
06:49AM 36.6730 10.8560 276° West 410 472 40,000  Level FlightAware
06:49AM 36.6800 10.7720 276° West 407 468 40,000  Level FlightAware
06:50AM 36.6860 10.6910 275° West 407 468 40,000  Level FlightAware
06:50AM 36.6930 10.6090 276° West 407 468 40,000  Level FlightAware
06:51AM 36.7000 10.5260 276° West 404 465 40,000  Level FlightAware
06:51AM 36.7060 10.4420 275° West 401 461 40,000  Level FlightAware
06:52AM 36.7120 10.3670 276° West 403 464 40,000  Level FlightAware
06:53AM 36.7190 10.2860 276° West 403 464 40,000  Level FlightAware
06:53AM 36.7250 10.2010 275° West 406 467 40,000  Level FlightAware
06:54AM 36.7310 10.1270 276° West 406 467 40,000  Level FlightAware
06:54AM 36.7370 10.0490 276° West 406 467 40,000  Level FlightAware
06:55AM 36.7430 9.9660 275° West 407 468 40,000  Level FlightAware
06:56AM 36.7500 9.8810 276° West 406 467 40,000  Level FlightAware
06:56AM 36.7560 9.7970 275° West 408 470 40,000  Level FlightAware
06:57AM 36.7610 9.7190 275° West 409 471 40,000  Level FlightAware
06:58AM 36.7690 9.6070 275° West 411 473 40,000  Level FlightAware
06:58AM 36.7760 9.5210 276° West 406 467 40,000  Level FlightAware
06:59AM 36.7820 9.4360 275° West 411 473 40,000  Level FlightAware
06:59AM 36.7870 9.3550 274° West 414 476 40,000  Level FlightAware
07:00AM 36.7930 9.2710 275° West 412 474 40,000  Level FlightAware
07:00AM 36.7990 9.1900 275° West 412 474 40,000  Level FlightAware
07:01AM 36.8060 9.0820 275° West 413 475 40,000  Level FlightAware
07:02AM 36.8110 9.0090 275° West 413 475 40,000  Level FlightAware
07:02AM 36.8180 8.9050 275° West 412 474 40,000  Level FlightAware
07:03AM 36.8250 8.8130 275° West 410 472 40,000  Level FlightAware
07:04AM 36.8330 8.6960 275° West 411 473 40,000  Level FlightAware
07:05AM 36.8380 8.6240 275° West 411 473 40,000  Level FlightAware
07:05AM 36.8430 8.5520 275° West 411 473 40,000  Level FlightAware
07:06AM 36.8480 8.4790 275° West 411 473 40,000  Level FlightAware
07:06AM 36.8530 8.4070 275° West 411 473 40,000  Level FlightAware
07:07AM 36.8580 8.3340 275° West 411 473 40,000  Level FlightAware
07:08AM 36.8630 8.2620 275° West 411 473 40,000  Level FlightAware
07:08AM 36.8680 8.1890 275° West 411 473 40,000  Level FlightAware
07:09AM 36.8730 8.1170 275° West 411 473 40,000  Level FlightAware
07:10AM 36.8800 8.0200 275° West 411 473 40,000  Level FlightAware
07:10AM 36.8930 7.7970 274° West 412 474 40,000  Level FlightAware
07:11AM 36.8970 7.7230 274° West 411 473 40,000  Level FlightAware
07:12AM 36.9040 7.6090 274° West 409 471 40,000  Level FlightAware
07:12AM 36.9080 7.5420 274° West 406 467 40,000  Level FlightAware
07:13AM 36.9150 7.4240 274° West 402 463 40,000  Level FlightAware
07:14AM 36.9200 7.3370 274° West 401 461 40,000  Level FlightAware
07:14AM 36.9250 7.2480 274° West 401 461 40,000  Level FlightAware
07:15AM 36.9290 7.1640 273° West 401 461 40,000  Level FlightAware
07:15AM 36.9360 7.0690 275° West 404 465 40,000  Level FlightAware
07:16AM 36.9400 6.9860 273° West 404 465 40,000  Level FlightAware
07:17AM 36.9440 6.9110 274° West 405 466 40,000  Level FlightAware
07:17AM 36.9470 6.8340 273° West 405 466 40,000  Level FlightAware
07:18AM 36.9550 6.7200 275° West 402 463 40,000  Level FlightAware
07:19AM 36.9590 6.6470 274° West 404 465 40,000  Level FlightAware
07:19AM 36.9640 6.5180 273° West 405 466 40,000  Level FlightAware
07:20AM 36.9680 6.4240 273° West 403 464 40,000  Level FlightAware
07:21AM 36.9700 6.3530 272° West 403 464 40,000  Level FlightAware
07:21AM 36.9720 6.2810 272° West 403 464 40,000  Level FlightAware
07:22AM 36.9740 6.2100 272° West 403 464 40,000  Level FlightAware
07:23AM 36.9760 6.1390 272° West 403 464 40,000  Level FlightAware
07:23AM 36.9780 6.0670 272° West 403 464 40,000  Level FlightAware
07:24AM 36.9800 5.9960 272° West 403 464 40,000  Level FlightAware
07:24AM 36.9820 5.9240 272° West 403 464 40,000  Level FlightAware
07:25AM 36.9840 5.8530 272° West 403 464 40,000  Level FlightAware
07:26AM 36.9860 5.7820 272° West 403 464 40,000  Level FlightAware
07:26AM 36.9880 5.7080 272° West 403 464 40,000  Level FlightAware
07:27AM 36.9900 5.6370 272° West 403 464 40,000  Level FlightAware
07:27AM 36.9920 5.5640 272° West 403 464 40,000  Level FlightAware
07:28AM 36.9940 5.4920 272° West 403 464 40,000  Level FlightAware
07:29AM 36.9960 5.4210 272° West 403 464 40,000  Level FlightAware
07:29AM 36.9980 5.3490 272° West 403 464 40,000  Level FlightAware
07:32AM 36.9569 5.0461 260° West  Level Estimated
07:33AM 36.9385 4.9126 260° West  Level Estimated
07:34AM 36.9200 4.7792 260° West  Level Estimated
07:35AM 36.9013 4.6458 260° West  Level Estimated
07:36AM 36.8825 4.5124 260° West  Level Estimated
07:37AM 36.8635 4.3792 260° West  Level Estimated
07:38AM 36.8444 4.2460 260° West  Level Estimated
07:39AM 36.8251 4.1129 260° West  Level Estimated
07:40AM 36.8057 3.9798 260° West  Level Estimated
07:41AM 36.7861 3.8468 260° West  Level Estimated
07:42AM 36.7664 3.7139 260° West  Level Estimated
07:43AM 36.7465 3.5810 259° West  Level Estimated
07:44AM 36.7265 3.4483 259° West  Level Estimated
07:45AM 36.7063 3.3156 259° West  Level Estimated
07:46AM 36.6910 3.2154 259° West  Level Estimated
07:47AM 36.6910 3.2154 338° Northwest  Level Estimated
07:48AM 36.6910 3.2154 338° Northwest  Level Estimated
07:49AM 36.6910 3.2154 338° Northwest  Level Estimated
07:50AM 36.6910 3.2154 338° Northwest  Level Estimated
07:51AM 36.6910 3.2154 338° Northwest  Level Estimated
07:52AM 36.6910 3.2154 338° Northwest  Level Estimated
07:53AM 36.6910 3.2154 338° Northwest  Level Estimated
07:54AM 36.6910 3.2154 338° Northwest  Level Estimated
07:55AM 36.6910 3.2154 338° Northwest  Level Estimated
07:56AM 36.6910 3.2154 338° Northwest  Level Estimated
07:57AM 36.6910 3.2154 338° Northwest  Level Estimated